createdAt,value
2022-08-19T00:00:06.625Z,101011.53
2022-08-19T00:02:36.608Z,101012.56
2022-08-19T00:05:06.169Z,101010.09
2022-08-19T00:07:34.431Z,101014.84
2022-08-19T00:10:02.626Z,101014.00
2022-08-19T00:12:30.902Z,101014.88
2022-08-19T00:14:59.311Z,101016.16
2022-08-19T00:17:27.511Z,101024.34
2022-08-19T00:19:57.298Z,101014.41
2022-08-19T00:22:28.152Z,101007.81
2022-08-19T00:24:56.581Z,101010.09
2022-08-19T00:27:26.914Z,101007.38
2022-08-19T00:29:55.450Z,101004.34
2022-08-19T00:32:24.030Z,101005.94
2022-08-19T00:34:54.464Z,101004.19
2022-08-19T00:37:26.618Z,101001.44
2022-08-19T00:39:56.921Z,101003.75
2022-08-19T00:42:29.412Z,100999.28
2022-08-19T00:44:57.839Z,100994.09
2022-08-19T00:47:26.088Z,100994.38
2022-08-19T00:49:58.049Z,100992.94
2022-08-19T00:52:31.040Z,100993.94
2022-08-19T00:55:00.616Z,101001.13
2022-08-19T00:57:34.442Z,100998.81
2022-08-19T01:00:04.251Z,100998.41
2022-08-19T01:02:34.524Z,100998.97
2022-08-19T01:05:07.069Z,100996.97
2022-08-19T01:07:38.447Z,100995.22
2022-08-19T01:10:12.758Z,100987.19
2022-08-19T01:12:41.645Z,100992.50
2022-08-19T01:15:12.895Z,100986.88
2022-08-19T01:17:42.816Z,100986.59
2022-08-19T01:20:14.551Z,100985.16
2022-08-19T01:22:47.123Z,100996.94
2022-08-19T01:25:16.842Z,100988.03
2022-08-19T01:27:48.532Z,100980.66
2022-08-19T01:30:23.524Z,100976.06
2022-08-19T01:32:52.018Z,100980.41
2022-08-19T01:35:21.160Z,100975.22
2022-08-19T01:37:53.381Z,100970.91
2022-08-19T01:40:23.643Z,100964.16
2022-08-19T01:42:52.916Z,100959.97
2022-08-19T01:45:22.898Z,100965.56
2022-08-19T01:48:01.296Z,100960.81
2022-08-19T01:50:31.302Z,100967.72
2022-08-19T01:53:06.158Z,100953.75
2022-08-19T01:55:40.828Z,100957.06
2022-08-19T01:58:13.857Z,100958.81
2022-08-19T02:00:42.896Z,100960.38
2022-08-19T02:03:12.384Z,100957.47
2022-08-19T02:05:42.023Z,100957.78
2022-08-19T02:08:13.036Z,100952.16
2022-08-19T02:10:44.843Z,100949.75
2022-08-19T02:13:14.631Z,100948.88
2022-08-19T02:15:43.318Z,100942.84
2022-08-19T02:18:12.175Z,100938.94
2022-08-19T02:20:42.397Z,100943.41
2022-08-19T02:23:16.075Z,100936.19
2022-08-19T02:25:45.452Z,100935.63
2022-08-19T02:28:18.019Z,100937.06
2022-08-19T02:30:48.410Z,100940.06
2022-08-19T02:33:18.217Z,100936.47
2022-08-19T02:35:47.541Z,100945.38
2022-08-19T02:38:28.729Z,100943.38
2022-08-19T02:41:00.443Z,100945.53
2022-08-19T02:43:32.195Z,100936.59
2022-08-19T02:46:02.771Z,100944.09
2022-08-19T02:48:31.083Z,100922.97
2022-08-19T02:51:00.470Z,100921.38
2022-08-19T02:53:30.938Z,100936.69
2022-08-19T02:55:59.411Z,100937.31
2022-08-19T02:58:28.365Z,100946.09
2022-08-19T03:00:58.357Z,100956.28
2022-08-19T03:03:26.931Z,100951.97
2022-08-19T03:06:05.865Z,100952.53
2022-08-19T03:08:35.678Z,100962.47
2022-08-19T03:11:04.486Z,100961.16
2022-08-19T03:13:32.975Z,100964.91
2022-08-19T03:16:01.121Z,100959.16
2022-08-19T03:18:29.294Z,100953.97
2022-08-19T03:20:58.204Z,100958.00
2022-08-19T03:23:26.304Z,100946.22
2022-08-19T03:26:03.005Z,100948.53
2022-08-19T03:28:51.380Z,100946.53
2022-08-19T03:31:44.857Z,100953.00
2022-08-19T03:34:18.298Z,100954.53
2022-08-19T03:36:47.207Z,100954.84
2022-08-19T03:39:16.133Z,100957.41
2022-08-19T03:41:48.545Z,100952.81
2022-08-19T03:44:19.405Z,100949.38
2022-08-19T03:46:49.045Z,100955.25
2022-08-19T03:49:18.178Z,100944.50
2022-08-19T03:51:48.031Z,100940.47
2022-08-19T03:54:18.567Z,100935.88
2022-08-19T03:56:51.049Z,100934.88
2022-08-19T03:59:22.278Z,100935.63
2022-08-19T04:01:50.405Z,100936.34
2022-08-19T04:04:20.007Z,100928.69
2022-08-19T04:06:48.949Z,100923.22
2022-08-19T04:09:17.875Z,100926.56
2022-08-19T04:11:50.483Z,100924.69
2022-08-19T04:14:21.071Z,100910.09
2022-08-19T04:16:50.626Z,100908.13
2022-08-19T04:19:20.976Z,100898.22
2022-08-19T04:21:52.619Z,100900.81
2022-08-19T04:24:21.783Z,100905.06
2022-08-19T04:26:52.166Z,100907.28
2022-08-19T04:29:22.778Z,100912.25
2022-08-19T04:31:52.127Z,100900.75
2022-08-19T04:34:24.399Z,100895.56
2022-08-19T04:36:54.007Z,100899.31
2022-08-19T04:39:46.780Z,100900.03
2022-08-19T04:42:35.480Z,100905.50
2022-08-19T04:45:05.278Z,100909.38
2022-08-19T04:47:47.576Z,100904.94
2022-08-19T04:50:23.625Z,100904.78
2022-08-19T04:52:53.614Z,100907.94
2022-08-19T04:55:21.924Z,100906.56
2022-08-19T04:57:51.888Z,100910.84
2022-08-19T05:00:20.492Z,100907.13
2022-08-19T05:02:50.371Z,100908.81
2022-08-19T05:05:20.792Z,100921.06
2022-08-19T05:07:49.068Z,100920.28
2022-08-19T05:10:17.559Z,100924.81
2022-08-19T05:12:45.853Z,100928.69
2022-08-19T05:15:15.690Z,100931.16
2022-08-19T05:18:04.444Z,100929.13
2022-08-19T05:20:50.279Z,100928.25
2022-08-19T05:23:22.061Z,100939.31
2022-08-19T05:25:51.459Z,100943.06
2022-08-19T05:28:19.831Z,100951.41
2022-08-19T05:30:51.813Z,100948.25
2022-08-19T05:33:20.535Z,100947.59
2022-08-19T05:35:50.521Z,100952.00
2022-08-19T05:38:20.461Z,100938.50
2022-08-19T05:40:52.263Z,100937.22
2022-08-19T05:43:20.956Z,100937.06
2022-08-19T05:45:51.891Z,100928.31
2022-08-19T05:48:29.351Z,100929.75
2022-08-19T05:50:58.800Z,100936.53
2022-08-19T05:53:30.901Z,100934.06
2022-08-19T05:55:59.057Z,100938.53
2022-08-19T05:58:28.281Z,100953.06
2022-08-19T06:00:57.812Z,100953.38
2022-08-19T06:03:25.889Z,100946.06
2022-08-19T06:05:56.076Z,100949.34
2022-08-19T06:08:34.227Z,100943.88
2022-08-19T06:11:18.049Z,100951.22
2022-08-19T06:13:48.601Z,100952.06
2022-08-19T06:16:23.260Z,100964.59
2022-08-19T06:18:53.565Z,100967.19
2022-08-19T06:21:22.715Z,100955.38
2022-08-19T06:23:51.924Z,100962.28
2022-08-19T06:26:21.962Z,100953.81
2022-08-19T06:28:50.653Z,100955.53
2022-08-19T06:31:25.249Z,100967.47
2022-08-19T06:33:53.878Z,100966.50
2022-08-19T06:36:28.577Z,100963.34
2022-08-19T06:38:57.987Z,100963.03
2022-08-19T06:41:26.676Z,100961.88
2022-08-19T06:43:55.733Z,100970.22
2022-08-19T06:46:26.285Z,100953.97
2022-08-19T06:48:55.890Z,100950.63
2022-08-19T06:51:24.941Z,100949.47
2022-08-19T06:53:55.077Z,100945.28
2022-08-19T06:56:31.862Z,100948.72
2022-08-19T06:59:00.157Z,100947.16
2022-08-19T07:01:30.378Z,100944.06
2022-08-19T07:03:58.633Z,100943.09
2022-08-19T07:06:43.303Z,100938.44
2022-08-19T07:09:14.175Z,100947.00
2022-08-19T07:11:46.737Z,100942.13
2022-08-19T07:14:19.586Z,100949.03
2022-08-19T07:16:52.490Z,100935.53
2022-08-19T07:19:22.126Z,100939.13
2022-08-19T07:21:52.004Z,100935.97
2022-08-19T07:24:21.018Z,100946.13
2022-08-19T07:26:51.768Z,100943.06
2022-08-19T07:29:21.418Z,100954.19
2022-08-19T07:31:57.090Z,100953.28
2022-08-19T07:34:26.398Z,100958.41
2022-08-19T07:36:56.582Z,100963.03
2022-08-19T07:39:27.593Z,100961.25
2022-08-19T07:41:56.642Z,100955.22
2022-08-19T07:44:24.826Z,100961.81
2022-08-19T07:46:57.818Z,100965.28
2022-08-19T07:49:26.806Z,100972.16
2022-08-19T07:51:57.574Z,100979.69
2022-08-19T07:54:28.121Z,100989.22
2022-08-19T07:56:56.264Z,101004.25
2022-08-19T07:59:25.145Z,101013.34
2022-08-19T08:01:55.062Z,101010.81
2022-08-19T08:04:41.087Z,101015.31
2022-08-19T08:07:31.487Z,101020.56
2022-08-19T08:10:03.065Z,101027.59
2022-08-19T08:12:35.297Z,101034.88
2022-08-19T08:15:08.958Z,101045.44
2022-08-19T08:17:49.056Z,101034.47
2022-08-19T08:20:18.522Z,101037.44
2022-08-19T08:23:06.935Z,101036.28
2022-08-19T08:25:36.729Z,101049.00
2022-08-19T08:28:11.439Z,101046.25
2022-08-19T08:30:48.964Z,101051.09
2022-08-19T08:33:33.866Z,101064.34
2022-08-19T08:36:06.481Z,101061.75
2022-08-19T08:38:40.146Z,101063.53
2022-08-19T08:41:20.907Z,101061.19
2022-08-19T08:43:54.227Z,101067.75
2022-08-19T08:46:30.983Z,101069.72
2022-08-19T08:49:19.882Z,101076.63
2022-08-19T08:51:59.602Z,101076.63
2022-08-19T08:54:37.806Z,101068.44
2022-08-19T08:57:12.154Z,101060.34
2022-08-19T08:59:43.954Z,101060.34
2022-08-19T09:02:12.701Z,101067.09
2022-08-19T09:04:42.705Z,101068.72
2022-08-19T09:07:47.371Z,101064.03
2022-08-19T09:10:25.796Z,101062.91
2022-08-19T09:13:03.432Z,101058.16
2022-08-19T09:15:45.581Z,101057.81
2022-08-19T09:18:19.214Z,101069.22
2022-08-19T09:20:54.049Z,101061.06
2022-08-19T09:23:26.788Z,101061.72
2022-08-19T09:25:56.259Z,101056.94
2022-08-19T09:28:27.524Z,101063.94
2022-08-19T09:30:56.700Z,101062.63
2022-08-19T09:33:25.407Z,101066.00
2022-08-19T09:36:08.531Z,101062.22
2022-08-19T09:38:43.665Z,101067.06
2022-08-19T09:41:26.383Z,101067.22
2022-08-19T09:43:59.337Z,101060.38
2022-08-19T09:46:45.983Z,101061.16
2022-08-19T09:49:22.767Z,101059.00
2022-08-19T09:52:00.753Z,101058.81
2022-08-19T09:54:46.871Z,101050.56
2022-08-19T09:57:56.895Z,101063.25
2022-08-19T10:00:44.055Z,101064.41
2022-08-19T10:03:19.382Z,101060.78
2022-08-19T10:05:55.127Z,101062.94
2022-08-19T10:08:27.750Z,101065.38
2022-08-19T10:10:57.024Z,101056.94
2022-08-19T10:13:29.989Z,101060.88
2022-08-19T10:16:04.104Z,101059.56
2022-08-19T10:18:35.225Z,101068.31
2022-08-19T10:21:11.630Z,101057.50
2022-08-19T10:23:46.118Z,101049.38
2022-08-19T10:26:21.187Z,101047.69
2022-08-19T10:28:50.533Z,101037.19
2022-08-19T10:31:21.871Z,101045.13
2022-08-19T10:34:26.787Z,101038.94
2022-08-19T10:37:01.241Z,101042.72
2022-08-19T10:39:42.533Z,101039.09
2022-08-19T10:42:14.483Z,101032.75
2022-08-19T10:44:54.041Z,101031.72
2022-08-19T10:47:25.586Z,101036.53
2022-08-19T10:50:15.930Z,101038.09
2022-08-19T10:52:50.854Z,101048.22
2022-08-19T10:55:43.684Z,101040.31
2022-08-19T10:58:14.364Z,101035.13
2022-08-19T11:00:45.008Z,101033.03
2022-08-19T11:03:18.438Z,101027.56
2022-08-19T11:05:47.470Z,101028.22
2022-08-19T11:08:23.402Z,101043.00
2022-08-19T11:11:01.732Z,101032.31
2022-08-19T11:13:30.376Z,101037.31
2022-08-19T11:16:05.119Z,101040.25
2022-08-19T11:18:39.550Z,101047.56
2022-08-19T11:21:09.638Z,101044.69
2022-08-19T11:23:37.895Z,101043.59
2022-08-19T11:26:07.476Z,101043.97
2022-08-19T11:28:36.006Z,101033.53
2022-08-19T11:31:05.239Z,101035.94
2022-08-19T11:33:33.870Z,101030.72
2022-08-19T11:36:02.785Z,101026.91
2022-08-19T11:38:31.708Z,101038.56
2022-08-19T11:41:01.374Z,101029.63
2022-08-19T11:43:36.744Z,101042.38
2022-08-19T11:46:08.939Z,101033.59
2022-08-19T11:48:37.709Z,101034.78
2022-08-19T11:51:08.575Z,101022.50
2022-08-19T11:53:37.627Z,101022.72
2022-08-19T11:56:06.753Z,101023.34
2022-08-19T11:58:36.435Z,101014.34
2022-08-19T12:01:09.118Z,101021.31
2022-08-19T12:03:37.855Z,101019.59
2022-08-19T12:06:08.279Z,101022.81
2022-08-19T12:08:37.206Z,101027.81
2022-08-19T12:11:05.570Z,101016.47
2022-08-19T12:14:31.992Z,101019.22
2022-08-19T12:17:02.989Z,101021.03
2022-08-19T12:19:31.200Z,101020.50
2022-08-19T12:22:02.635Z,101008.94
2022-08-19T12:24:33.041Z,101011.38
2022-08-19T12:27:03.143Z,101008.28
2022-08-19T12:29:31.925Z,101009.03
2022-08-19T12:58:31.194Z,101000.88
2022-08-19T13:00:59.920Z,101000.50
2022-08-19T13:03:30.870Z,100997.34
2022-08-19T13:06:02.286Z,101001.53
2022-08-19T13:08:48.728Z,100997.13
2022-08-19T13:16:53.432Z,101002.19
2022-08-19T13:20:11.135Z,100990.72
2022-08-19T13:51:23.132Z,100965.41
2022-08-19T15:55:41.360Z,101005.25
2022-08-19T18:58:12.588Z,101014.97
2022-08-19T19:00:43.961Z,101015.13
2022-08-19T19:03:30.813Z,101020.69
2022-08-19T19:05:59.738Z,101019.97
2022-08-19T19:08:28.162Z,101026.50
2022-08-19T19:10:58.948Z,101026.19
2022-08-19T19:13:29.006Z,101029.63
2022-08-19T19:15:59.960Z,101025.84
2022-08-19T19:18:28.592Z,101035.13
2022-08-19T19:20:57.425Z,101033.41
2022-08-19T19:23:26.036Z,101038.22
2022-08-19T19:25:54.511Z,101031.34
2022-08-19T19:28:25.377Z,101033.75
2022-08-19T19:30:57.845Z,101037.53
2022-08-19T19:33:29.034Z,101037.72
2022-08-19T19:35:57.637Z,101033.44
2022-08-19T19:38:26.069Z,101038.22
2022-08-19T19:40:54.268Z,101043.06
2022-08-19T19:43:22.661Z,101033.41
2022-08-19T19:45:52.045Z,101034.13
2022-08-19T19:48:20.591Z,101046.50
2022-08-19T19:50:54.278Z,101040.97
2022-08-19T19:53:26.199Z,101033.06
2022-08-19T19:55:58.817Z,101048.19
2022-08-19T19:58:28.863Z,101045.09
2022-08-19T20:00:59.402Z,101052.50
2022-08-19T20:03:29.960Z,101048.88
2022-08-19T20:06:00.570Z,101055.25
2022-08-19T20:08:46.762Z,101060.06
2022-08-19T20:11:30.637Z,101062.31
2022-08-19T20:14:01.841Z,101061.63
2022-08-19T20:16:31.586Z,101067.81
2022-08-19T20:19:01.616Z,101059.03
2022-08-19T20:21:34.866Z,101063.69
2022-08-19T20:24:09.050Z,101057.81
2022-08-19T20:26:38.394Z,101061.25
2022-08-19T20:29:13.617Z,101070.38
2022-08-19T20:31:57.703Z,101076.69
2022-08-19T20:34:28.806Z,101072.06
2022-08-19T20:36:59.002Z,101071.88
2022-08-19T20:39:29.343Z,101078.44
2022-08-19T20:41:57.574Z,101083.06
2022-08-19T20:44:25.903Z,101085.94
2022-08-19T20:46:54.203Z,101086.47
2022-08-19T20:49:26.993Z,101079.59
2022-08-19T20:51:55.898Z,101085.75
2022-08-19T20:54:25.873Z,101096.75
2022-08-19T20:56:54.586Z,101103.59
2022-08-19T20:59:23.721Z,101105.16
2022-08-19T21:01:52.544Z,101101.72
2022-08-19T21:04:22.422Z,101094.53
2022-08-19T21:06:51.224Z,101115.66
2022-08-19T21:09:20.957Z,101109.63
2022-08-19T21:11:52.016Z,101109.63
2022-08-19T21:14:20.484Z,101117.88
2022-08-19T21:16:49.352Z,101126.25
2022-08-19T21:19:22.018Z,101134.00
2022-08-19T21:21:52.162Z,101131.72
2022-08-19T21:24:20.318Z,101134.31
2022-08-19T21:26:51.299Z,101139.38
2022-08-19T21:29:21.965Z,101146.28
2022-08-19T21:31:50.368Z,101150.81
2022-08-19T21:34:18.723Z,101152.72
2022-08-19T21:36:47.178Z,101155.22
2022-08-19T21:39:15.450Z,101144.66
2022-08-19T21:41:43.915Z,101145.47
2022-08-19T21:44:12.195Z,101151.34
2022-08-19T21:46:41.880Z,101156.78
2022-08-19T21:49:10.243Z,101163.47
2022-08-19T21:51:38.420Z,101162.59
2022-08-19T21:54:06.607Z,101158.03
2022-08-19T21:56:35.133Z,101170.53
2022-08-19T21:59:03.346Z,101169.06
2022-08-19T22:01:31.464Z,101169.56
2022-08-19T22:04:01.014Z,101173.78
2022-08-19T22:06:29.332Z,101177.56
2022-08-19T22:08:57.647Z,101170.50
2022-08-19T22:11:27.087Z,101176.78
2022-08-19T22:13:56.170Z,101181.28
2022-08-19T22:16:25.376Z,101171.94
2022-08-19T22:18:53.502Z,101182.63
2022-08-19T22:21:39.737Z,101168.53
2022-08-19T22:24:09.356Z,101178.13
2022-08-19T22:26:37.472Z,101175.06
2022-08-19T22:29:05.603Z,101172.97
2022-08-19T22:31:34.012Z,101170.22
2022-08-19T22:34:03.818Z,101166.06
2022-08-19T22:36:33.624Z,101171.94
2022-08-19T22:39:02.522Z,101165.97
2022-08-19T22:41:33.370Z,101169.53
2022-08-19T22:44:01.713Z,101168.47
2022-08-19T22:46:30.000Z,101173.59
2022-08-19T22:49:01.007Z,101164.56
2022-08-19T22:51:47.613Z,101166.06
2022-08-19T22:54:18.152Z,101162.81
2022-08-19T22:56:46.516Z,101167.78
2022-08-19T22:59:14.579Z,101171.47
2022-08-19T23:01:42.989Z,101171.88
2022-08-19T23:04:11.376Z,101181.44
2022-08-19T23:06:42.015Z,101176.56
2022-08-19T23:09:16.614Z,101171.81
2022-08-19T23:11:47.177Z,101175.91
2022-08-19T23:14:16.212Z,101175.03
2022-08-19T23:16:50.474Z,101183.28
2022-08-19T23:19:19.450Z,101188.94
2022-08-19T23:21:47.747Z,101187.53
2022-08-19T23:24:16.005Z,101178.53
2022-08-19T23:27:04.520Z,101188.81
2022-08-19T23:29:51.538Z,101188.09
2022-08-19T23:32:21.176Z,101202.00
2022-08-19T23:34:50.071Z,101204.91
2022-08-19T23:37:18.414Z,101206.66
2022-08-19T23:39:46.723Z,101230.59
2022-08-19T23:42:15.818Z,101223.69
2022-08-19T23:44:52.359Z,101221.66
2022-08-19T23:47:21.856Z,101211.91
2022-08-19T23:49:50.781Z,101199.06
2022-08-19T23:52:19.160Z,101200.56
2022-08-19T23:54:47.313Z,101210.28
2022-08-19T23:57:15.535Z,101212.06
2022-08-19T23:59:46.370Z,101219.41
